KLM1CF EHAM-EDDH
Flight info
| Callsign | KLM1CF |
|---|---|
| Flight time | 0h 52m |
| Altitude | 33000 |
| Route | ANDIK M105 RIBSO RIBSO3D |
| Aircraft | B772/H-SDE2E3FGHIJ5LORVWXY/LB1D1 |
Departure
| Time | 2026-05-01 14:02 |
|---|---|
| Airport | Amsterdam Airport Schiphol (EHAM) |
Arrival
| Time | 2026-05-01 14:55 |
|---|---|
| Airport | Hamburg Helmut Schmidt Airport (EDDH) |
| Time | Latitude | Longitude | Altitude | Speed | Heading |
|---|---|---|---|---|---|
| 2026-05-01 13:23 | 52.30915 | 4.76792 | 15 ft | 0 kts | 184° |
| 2026-05-01 13:51 | 52.30923 | 4.76792 | 15 ft | 2 kts | 184° |
| 2026-05-01 13:52 | 52.30938 | 4.76794 | 15 ft | 2 kts | 184° |
| 2026-05-01 13:52 | 52.30953 | 4.76796 | 15 ft | 2 kts | 184° |
| 2026-05-01 13:52 | 52.30967 | 4.76797 | 15 ft | 2 kts | 184° |
| 2026-05-01 13:52 | 52.30982 | 4.76799 | 15 ft | 2 kts | 184° |
| 2026-05-01 13:53 | 52.30997 | 4.76800 | 15 ft | 2 kts | 184° |
| 2026-05-01 13:53 | 52.31027 | 4.76807 | 15 ft | 2 kts | 202° |
| 2026-05-01 13:53 | 52.31039 | 4.76818 | 15 ft | 2 kts | 214° |
| 2026-05-01 13:54 | 52.31043 | 4.76822 | 15 ft | 0 kts | 218° |
| 2026-05-01 13:54 | 52.31044 | 4.76823 | 15 ft | 1 kts | 219° |
| 2026-05-01 13:54 | 52.31055 | 4.76839 | 15 ft | 2 kts | 228° |
| 2026-05-01 13:54 | 52.31065 | 4.76858 | 15 ft | 2 kts | 236° |
| 2026-05-01 13:55 | 52.31072 | 4.76879 | 15 ft | 2 kts | 244° |
| 2026-05-01 13:55 | 52.31078 | 4.76901 | 16 ft | 2 kts | 252° |
| 2026-05-01 13:55 | 52.31082 | 4.76925 | 16 ft | 2 kts | 261° |
| 2026-05-01 13:55 | 52.31083 | 4.76949 | 16 ft | 2 kts | 269° |
| 2026-05-01 13:56 | 52.31083 | 4.76973 | 16 ft | 2 kts | 274° |
| 2026-05-01 13:56 | 52.31082 | 4.76998 | 16 ft | 2 kts | 273° |
| 2026-05-01 13:56 | 52.31081 | 4.77022 | 16 ft | 2 kts | 272° |
| 2026-05-01 13:56 | 52.31081 | 4.77047 | 16 ft | 2 kts | 272° |
| 2026-05-01 13:57 | 52.31080 | 4.77070 | 16 ft | 1 kts | 272° |
| 2026-05-01 13:57 | 52.31080 | 4.77071 | 16 ft | 0 kts | 272° |
| 2026-05-01 13:58 | 52.31080 | 4.77068 | 16 ft | 2 kts | 272° |
| 2026-05-01 13:59 | 52.31089 | 4.77002 | 16 ft | 9 kts | 290° |
| 2026-05-01 13:59 | 52.31165 | 4.76955 | 15 ft | 16 kts | 25° |
| 2026-05-01 13:59 | 52.31276 | 4.77076 | 13 ft | 20 kts | 32° |
| 2026-05-01 13:59 | 52.31405 | 4.77183 | 12 ft | 22 kts | 8° |
| 2026-05-01 14:00 | 52.31541 | 4.77227 | 7 ft | 18 kts | 31° |
| 2026-05-01 14:00 | 52.31583 | 4.77402 | 7 ft | 16 kts | 87° |
| 2026-05-01 14:00 | 52.31588 | 4.77601 | 5 ft | 19 kts | 88° |
| 2026-05-01 14:00 | 52.31594 | 4.77811 | 3 ft | 17 kts | 87° |
| 2026-05-01 14:01 | 52.31552 | 4.77954 | 2 ft | 15 kts | 172° |
| 2026-05-01 14:01 | 52.31498 | 4.77955 | 3 ft | 0 kts | 186° |
| 2026-05-01 14:01 | 52.31493 | 4.77954 | 3 ft | 8 kts | 185° |
| 2026-05-01 14:01 | 52.31179 | 4.77933 | 6 ft | 84 kts | 184° |
| 2026-05-01 14:02 | 52.30348 | 4.77845 | 7 ft | 149 kts | 182° |
| 2026-05-01 14:02 | 52.29232 | 4.77685 | 369 ft | 165 kts | 179° |
| 2026-05-01 14:02 | 52.28095 | 4.77916 | 1177 ft | 165 kts | 163° |
| 2026-05-01 14:02 | 52.27090 | 4.78596 | 1962 ft | 163 kts | 152° |
| 2026-05-01 14:03 | 52.26129 | 4.79760 | 2395 ft | 183 kts | 137° |
| 2026-05-01 14:03 | 52.25348 | 4.81485 | 2917 ft | 202 kts | 121° |
| 2026-05-01 14:03 | 52.24899 | 4.83795 | 3421 ft | 227 kts | 100° |
| 2026-05-01 14:03 | 52.25151 | 4.86476 | 3860 ft | 257 kts | 71° |
| 2026-05-01 14:04 | 52.26297 | 4.88797 | 4470 ft | 280 kts | 39° |
| 2026-05-01 14:04 | 52.27999 | 4.90345 | 5435 ft | 282 kts | 30° |
| 2026-05-01 14:04 | 52.29742 | 4.91759 | 6287 ft | 287 kts | 30° |
| 2026-05-01 14:04 | 52.30935 | 4.92719 | 6831 ft | 291 kts | 30° |
| 2026-05-01 14:05 | 52.33345 | 4.94656 | 8001 ft | 295 kts | 29° |
| 2026-05-01 14:05 | 52.35202 | 4.96149 | 8848 ft | 299 kts | 29° |
| 2026-05-01 14:05 | 52.37058 | 4.97640 | 9677 ft | 302 kts | 30° |
| 2026-05-01 14:05 | 52.38949 | 4.99161 | 10465 ft | 306 kts | 30° |
| 2026-05-01 14:06 | 52.40894 | 5.00728 | 10982 ft | 322 kts | 30° |
| 2026-05-01 14:06 | 52.42959 | 5.02393 | 11498 ft | 338 kts | 29° |
| 2026-05-01 14:06 | 52.45081 | 5.04102 | 11950 ft | 353 kts | 29° |
| 2026-05-01 14:06 | 52.47324 | 5.05905 | 12574 ft | 363 kts | 29° |
| 2026-05-01 14:07 | 52.49601 | 5.07733 | 13113 ft | 367 kts | 29° |
| 2026-05-01 14:07 | 52.51918 | 5.09591 | 13429 ft | 377 kts | 29° |
| 2026-05-01 14:07 | 52.54243 | 5.11449 | 14377 ft | 376 kts | 29° |
| 2026-05-01 14:08 | 52.58900 | 5.15171 | 16077 ft | 378 kts | 29° |
| 2026-05-01 14:08 | 52.61271 | 5.17063 | 16779 ft | 383 kts | 28° |
| 2026-05-01 14:08 | 52.63685 | 5.18985 | 17507 ft | 387 kts | 28° |
| 2026-05-01 14:08 | 52.66083 | 5.20890 | 18197 ft | 390 kts | 28° |
| 2026-05-01 14:09 | 52.68552 | 5.22848 | 18948 ft | 393 kts | 29° |
| 2026-05-01 14:09 | 52.70849 | 5.25143 | 19741 ft | 390 kts | 40° |
| 2026-05-01 14:09 | 52.72822 | 5.28154 | 20469 ft | 389 kts | 51° |
| 2026-05-01 14:09 | 52.74384 | 5.31749 | 21135 ft | 389 kts | 63° |
| 2026-05-01 14:10 | 52.75538 | 5.35833 | 21743 ft | 392 kts | 70° |
| 2026-05-01 14:10 | 52.76522 | 5.39977 | 22299 ft | 396 kts | 71° |
| 2026-05-01 14:10 | 52.77505 | 5.44275 | 22893 ft | 400 kts | 71° |
| 2026-05-01 14:10 | 52.78461 | 5.48546 | 23473 ft | 403 kts | 71° |
| 2026-05-01 14:11 | 52.79417 | 5.52881 | 24107 ft | 405 kts | 71° |
| 2026-05-01 14:11 | 52.81340 | 5.61731 | 25181 ft | 413 kts | 71° |
| 2026-05-01 14:11 | 52.82304 | 5.66209 | 25681 ft | 417 kts | 72° |
| 2026-05-01 14:12 | 52.83267 | 5.70711 | 26189 ft | 421 kts | 72° |
| 2026-05-01 14:12 | 52.84241 | 5.75281 | 26679 ft | 424 kts | 72° |
| 2026-05-01 14:12 | 52.85219 | 5.79887 | 27176 ft | 428 kts | 72° |
| 2026-05-01 14:12 | 52.86197 | 5.84507 | 27669 ft | 430 kts | 72° |
| 2026-05-01 14:13 | 52.87189 | 5.89203 | 28123 ft | 434 kts | 72° |
| 2026-05-01 14:13 | 52.87843 | 5.92308 | 28417 ft | 436 kts | 72° |
| 2026-05-01 14:13 | 52.89183 | 5.98685 | 29019 ft | 440 kts | 72° |
| 2026-05-01 14:13 | 52.90178 | 6.03436 | 29488 ft | 442 kts | 72° |
| 2026-05-01 14:14 | 52.91173 | 6.08197 | 29993 ft | 443 kts | 71° |
| 2026-05-01 14:14 | 52.92185 | 6.13051 | 30547 ft | 442 kts | 71° |
| 2026-05-01 14:14 | 52.93171 | 6.17789 | 31093 ft | 441 kts | 71° |
| 2026-05-01 14:14 | 52.94165 | 6.22577 | 31642 ft | 440 kts | 71° |
| 2026-05-01 14:15 | 52.95158 | 6.27373 | 32174 ft | 438 kts | 71° |
| 2026-05-01 14:15 | 52.96139 | 6.32119 | 32657 ft | 438 kts | 71° |
| 2026-05-01 14:15 | 52.97110 | 6.36828 | 33148 ft | 437 kts | 71° |
| 2026-05-01 14:15 | 52.98103 | 6.41661 | 33264 ft | 439 kts | 71° |
| 2026-05-01 14:16 | 53.00046 | 6.51145 | 33271 ft | 435 kts | 71° |
| 2026-05-01 14:16 | 53.01969 | 6.60573 | 33276 ft | 435 kts | 71° |
| 2026-05-01 14:17 | 53.03904 | 6.70111 | 33274 ft | 435 kts | 72° |
| 2026-05-01 14:17 | 53.05810 | 6.79555 | 33278 ft | 433 kts | 72° |
| 2026-05-01 14:18 | 53.07712 | 6.89025 | 33279 ft | 433 kts | 72° |
| 2026-05-01 14:18 | 53.09288 | 6.96908 | 33276 ft | 433 kts | 72° |
| 2026-05-01 14:19 | 53.11492 | 7.07988 | 33283 ft | 433 kts | 72° |
| 2026-05-01 14:19 | 53.13358 | 7.17413 | 33284 ft | 432 kts | 72° |
| 2026-05-01 14:20 | 53.16156 | 7.31646 | 33288 ft | 431 kts | 72° |
| 2026-05-01 14:21 | 53.18003 | 7.41106 | 33289 ft | 431 kts | 72° |
| 2026-05-01 14:21 | 53.19848 | 7.50603 | 33294 ft | 430 kts | 72° |
| 2026-05-01 14:22 | 53.21654 | 7.59942 | 32598 ft | 424 kts | 72° |
| 2026-05-01 14:22 | 53.22549 | 7.64582 | 31707 ft | 427 kts | 72° |
| 2026-05-01 14:22 | 53.23459 | 7.69313 | 31025 ft | 425 kts | 72° |
| 2026-05-01 14:22 | 53.24347 | 7.73937 | 30611 ft | 417 kts | 72° |
| 2026-05-01 14:23 | 53.25225 | 7.78521 | 30163 ft | 410 kts | 73° |
| 2026-05-01 14:23 | 53.26075 | 7.82967 | 29714 ft | 404 kts | 73° |
| 2026-05-01 14:23 | 53.26924 | 7.87423 | 29262 ft | 407 kts | 73° |
| 2026-05-01 14:23 | 53.27787 | 7.91960 | 28792 ft | 416 kts | 73° |
| 2026-05-01 14:24 | 53.28662 | 7.96579 | 28302 ft | 415 kts | 73° |
| 2026-05-01 14:24 | 53.29522 | 8.01126 | 27825 ft | 411 kts | 73° |
| 2026-05-01 14:24 | 53.30373 | 8.05635 | 27354 ft | 407 kts | 73° |
| 2026-05-01 14:24 | 53.31219 | 8.10129 | 26881 ft | 404 kts | 73° |
| 2026-05-01 14:25 | 53.32058 | 8.14597 | 26407 ft | 402 kts | 74° |
| 2026-05-01 14:25 | 53.32889 | 8.18966 | 25926 ft | 399 kts | 72° |
| 2026-05-01 14:25 | 53.33884 | 8.23311 | 25448 ft | 397 kts | 70° |
| 2026-05-01 14:25 | 53.34890 | 8.27567 | 24976 ft | 394 kts | 70° |
| 2026-05-01 14:26 | 53.35887 | 8.31815 | 24493 ft | 391 kts | 70° |
| 2026-05-01 14:26 | 53.37855 | 8.40117 | 23536 ft | 386 kts | 66° |
| 2026-05-01 14:26 | 53.39195 | 8.44036 | 23043 ft | 385 kts | 59° |
| 2026-05-01 14:27 | 53.40637 | 8.47745 | 22594 ft | 383 kts | 58° |
| 2026-05-01 14:27 | 53.42094 | 8.51462 | 22140 ft | 381 kts | 58° |
| 2026-05-01 14:27 | 53.43542 | 8.55149 | 21670 ft | 379 kts | 58° |
| 2026-05-01 14:28 | 53.46417 | 8.62508 | 20718 ft | 374 kts | 58° |
| 2026-05-01 14:28 | 53.47784 | 8.66124 | 20261 ft | 371 kts | 59° |
| 2026-05-01 14:28 | 53.49158 | 8.69749 | 19816 ft | 368 kts | 59° |
| 2026-05-01 14:28 | 53.50532 | 8.73363 | 19357 ft | 367 kts | 59° |
| 2026-05-01 14:29 | 53.51906 | 8.76961 | 18876 ft | 365 kts | 59° |
| 2026-05-01 14:29 | 53.53267 | 8.80509 | 18413 ft | 362 kts | 59° |
| 2026-05-01 14:30 | 53.57315 | 8.91038 | 17065 ft | 356 kts | 59° |
| 2026-05-01 14:30 | 53.58654 | 8.94526 | 16597 ft | 354 kts | 59° |
| 2026-05-01 14:30 | 53.59978 | 8.97975 | 15918 ft | 358 kts | 59° |
| 2026-05-01 14:31 | 53.62697 | 9.05047 | 14687 ft | 358 kts | 59° |
| 2026-05-01 14:31 | 53.64027 | 9.08494 | 14237 ft | 354 kts | 59° |
| 2026-05-01 14:31 | 53.65368 | 9.11955 | 13819 ft | 349 kts | 59° |
| 2026-05-01 14:31 | 53.66689 | 9.15350 | 13379 ft | 344 kts | 58° |
| 2026-05-01 14:32 | 53.67977 | 9.18653 | 12964 ft | 340 kts | 58° |
| 2026-05-01 14:32 | 53.68836 | 9.20855 | 12685 ft | 337 kts | 58° |
| 2026-05-01 14:32 | 53.70540 | 9.25227 | 12132 ft | 332 kts | 58° |
| 2026-05-01 14:32 | 53.71806 | 9.28473 | 11727 ft | 328 kts | 58° |
| 2026-05-01 14:33 | 53.73044 | 9.31654 | 11382 ft | 324 kts | 58° |
| 2026-05-01 14:33 | 53.74268 | 9.34801 | 10997 ft | 321 kts | 58° |
| 2026-05-01 14:33 | 53.75478 | 9.37916 | 10674 ft | 316 kts | 58° |
| 2026-05-01 14:33 | 53.76664 | 9.40967 | 10574 ft | 303 kts | 58° |
| 2026-05-01 14:34 | 53.77793 | 9.43868 | 10342 ft | 296 kts | 58° |
| 2026-05-01 14:34 | 53.78915 | 9.46746 | 9911 ft | 292 kts | 58° |
| 2026-05-01 14:34 | 53.80027 | 9.49596 | 9334 ft | 289 kts | 58° |
| 2026-05-01 14:34 | 53.81121 | 9.52407 | 8741 ft | 288 kts | 58° |
| 2026-05-01 14:35 | 53.82209 | 9.55212 | 8181 ft | 285 kts | 58° |
| 2026-05-01 14:35 | 53.83293 | 9.58013 | 7611 ft | 284 kts | 58° |
| 2026-05-01 14:35 | 53.84371 | 9.60799 | 7242 ft | 283 kts | 58° |
| 2026-05-01 14:35 | 53.85437 | 9.63554 | 7022 ft | 276 kts | 58° |
| 2026-05-01 14:36 | 53.86452 | 9.66175 | 6995 ft | 263 kts | 59° |
| 2026-05-01 14:36 | 53.87438 | 9.68718 | 6970 ft | 250 kts | 59° |
| 2026-05-01 14:36 | 53.88367 | 9.71114 | 6937 ft | 238 kts | 59° |
| 2026-05-01 14:36 | 53.89250 | 9.73390 | 6878 ft | 227 kts | 59° |
| 2026-05-01 14:37 | 53.90110 | 9.75605 | 6668 ft | 224 kts | 59° |
| 2026-05-01 14:37 | 53.90703 | 9.77970 | 6274 ft | 223 kts | 86° |
| 2026-05-01 14:37 | 53.90482 | 9.80507 | 5869 ft | 215 kts | 118° |
| 2026-05-01 14:37 | 53.89520 | 9.82326 | 5442 ft | 206 kts | 148° |
| 2026-05-01 14:38 | 53.88177 | 9.82884 | 4975 ft | 201 kts | 179° |
| 2026-05-01 14:38 | 53.86779 | 9.82639 | 4722 ft | 204 kts | 184° |
| 2026-05-01 14:38 | 53.85371 | 9.82355 | 4446 ft | 203 kts | 184° |
| 2026-05-01 14:38 | 53.84062 | 9.81553 | 4133 ft | 207 kts | 212° |
| 2026-05-01 14:39 | 53.83194 | 9.79613 | 3821 ft | 210 kts | 238° |
| 2026-05-01 14:39 | 53.82336 | 9.77678 | 3631 ft | 207 kts | 212° |
| 2026-05-01 14:39 | 53.81002 | 9.76966 | 3443 ft | 203 kts | 180° |
| 2026-05-01 14:39 | 53.79612 | 9.76696 | 3212 ft | 204 kts | 196° |
| 2026-05-01 14:40 | 53.78367 | 9.75572 | 3022 ft | 202 kts | 205° |
| 2026-05-01 14:40 | 53.77098 | 9.74445 | 2994 ft | 210 kts | 204° |
| 2026-05-01 14:40 | 53.75775 | 9.73296 | 2994 ft | 213 kts | 204° |
| 2026-05-01 14:40 | 53.74459 | 9.72155 | 2985 ft | 214 kts | 204° |
| 2026-05-01 14:41 | 53.73127 | 9.70997 | 2980 ft | 215 kts | 204° |
| 2026-05-01 14:41 | 53.71807 | 9.69851 | 2985 ft | 212 kts | 204° |
| 2026-05-01 14:41 | 53.70520 | 9.68723 | 2974 ft | 208 kts | 204° |
| 2026-05-01 14:41 | 53.69253 | 9.67546 | 2958 ft | 207 kts | 212° |
| 2026-05-01 14:42 | 53.68394 | 9.65641 | 2894 ft | 211 kts | 245° |
| 2026-05-01 14:42 | 53.68306 | 9.63167 | 2832 ft | 216 kts | 280° |
| 2026-05-01 14:42 | 53.69043 | 9.60988 | 2763 ft | 218 kts | 314° |
| 2026-05-01 14:42 | 53.70340 | 9.59668 | 2726 ft | 217 kts | 334° |
| 2026-05-01 14:43 | 53.71696 | 9.58577 | 2725 ft | 218 kts | 334° |
| 2026-05-01 14:43 | 53.73057 | 9.57472 | 2837 ft | 218 kts | 334° |
| 2026-05-01 14:43 | 53.74424 | 9.56369 | 2961 ft | 218 kts | 334° |
| 2026-05-01 14:43 | 53.75799 | 9.55265 | 2975 ft | 217 kts | 334° |
| 2026-05-01 14:44 | 53.77164 | 9.54175 | 2979 ft | 217 kts | 334° |
| 2026-05-01 14:44 | 53.79877 | 9.52013 | 2977 ft | 217 kts | 334° |
| 2026-05-01 14:44 | 53.81244 | 9.50927 | 2979 ft | 218 kts | 334° |
| 2026-05-01 14:45 | 53.82676 | 9.50095 | 2955 ft | 217 kts | 355° |
| 2026-05-01 14:45 | 53.85128 | 9.52286 | 2933 ft | 205 kts | 60° |
| 2026-05-01 14:45 | 53.85793 | 9.54403 | 2970 ft | 206 kts | 64° |
| 2026-05-01 14:46 | 53.86455 | 9.56545 | 2978 ft | 205 kts | 64° |
| 2026-05-01 14:46 | 53.87781 | 9.60830 | 2974 ft | 206 kts | 64° |
| 2026-05-01 14:46 | 53.88447 | 9.62985 | 2975 ft | 206 kts | 64° |
| 2026-05-01 14:47 | 53.88943 | 9.65223 | 2948 ft | 203 kts | 85° |
| 2026-05-01 14:47 | 53.88660 | 9.67498 | 2925 ft | 199 kts | 118° |
| 2026-05-01 14:47 | 53.87899 | 9.69448 | 2816 ft | 198 kts | 124° |
| 2026-05-01 14:48 | 53.86436 | 9.73042 | 2828 ft | 181 kts | 124° |
| 2026-05-01 14:48 | 53.85720 | 9.74799 | 2851 ft | 178 kts | 124° |
| 2026-05-01 14:48 | 53.84322 | 9.78222 | 2948 ft | 180 kts | 124° |
| 2026-05-01 14:49 | 53.82533 | 9.80919 | 2916 ft | 178 kts | 167° |
| 2026-05-01 14:49 | 53.80490 | 9.83213 | 2925 ft | 178 kts | 133° |
| 2026-05-01 14:50 | 53.79598 | 9.85563 | 2827 ft | 178 kts | 129° |
| 2026-05-01 14:50 | 53.76643 | 9.87779 | 2319 ft | 171 kts | 154° |
| 2026-05-01 14:51 | 53.75648 | 9.88660 | 2132 ft | 152 kts | 149° |
| 2026-05-01 14:52 | 53.72499 | 9.91426 | 1560 ft | 126 kts | 150° |
| 2026-05-01 14:52 | 53.71719 | 9.92102 | 1405 ft | 125 kts | 150° |
| 2026-05-01 14:52 | 53.70171 | 9.93440 | 1092 ft | 125 kts | 150° |
| 2026-05-01 14:53 | 53.69403 | 9.94104 | 935 ft | 125 kts | 149° |
| 2026-05-01 14:53 | 53.68641 | 9.94829 | 722 ft | 124 kts | 150° |
| 2026-05-01 14:53 | 53.67856 | 9.95492 | 576 ft | 125 kts | 153° |
| 2026-05-01 14:53 | 53.67068 | 9.96152 | 428 ft | 127 kts | 151° |
| 2026-05-01 14:54 | 53.66281 | 9.96818 | 272 ft | 127 kts | 151° |
| 2026-05-01 14:54 | 53.65505 | 9.97494 | 121 ft | 126 kts | 153° |
| 2026-05-01 14:54 | 53.64745 | 9.98124 | 68 ft | 111 kts | 152° |
| 2026-05-01 14:54 | 53.64164 | 9.98626 | 68 ft | 77 kts | 152° |
| 2026-05-01 14:55 | 53.63753 | 9.98985 | 68 ft | 59 kts | 151° |
| 2026-05-01 14:55 | 53.63458 | 9.99232 | 68 ft | 36 kts | 153° |
| 2026-05-01 14:55 | 53.63321 | 9.99388 | 68 ft | 17 kts | 122° |
| 2026-05-01 14:55 | 53.63288 | 9.99553 | 68 ft | 8 kts | 103° |
| 2026-05-01 14:56 | 53.63273 | 9.99666 | 68 ft | 11 kts | 100° |
| 2026-05-01 14:56 | 53.63237 | 9.99756 | 68 ft | 8 kts | 153° |
| 2026-05-01 14:56 | 53.63177 | 9.99805 | 68 ft | 11 kts | 155° |
| 2026-05-01 14:56 | 53.63089 | 9.99881 | 68 ft | 16 kts | 156° |
| 2026-05-01 14:57 | 53.62977 | 9.99975 | 68 ft | 10 kts | 148° |
| 2026-05-01 14:57 | 53.63010 | 10.00155 | 68 ft | 12 kts | 34° |
| 2026-05-01 14:57 | 53.63088 | 10.00250 | 68 ft | 14 kts | 55° |
| 2026-05-01 14:58 | 53.63104 | 10.00360 | 68 ft | 1 kts | 85° |